createdAt,value
2022-10-12T00:00:12.917Z,99.90
2022-10-12T00:01:14.732Z,99.90
2022-10-12T00:02:16.525Z,99.90
2022-10-12T00:03:19.517Z,99.90
2022-10-12T00:04:21.320Z,99.90
2022-10-12T00:05:23.142Z,99.90
2022-10-12T00:06:25.600Z,99.90
2022-10-12T00:07:27.708Z,99.90
2022-10-12T00:08:30.346Z,99.90
2022-10-12T00:09:32.357Z,99.90
2022-10-12T00:10:34.296Z,99.90
2022-10-12T00:11:36.170Z,99.90
2022-10-12T00:12:38.083Z,99.90
2022-10-12T00:13:40.034Z,99.90
2022-10-12T00:14:41.934Z,99.90
2022-10-12T00:15:43.727Z,99.90
2022-10-12T00:16:45.422Z,99.90
2022-10-12T00:17:47.098Z,99.90
2022-10-12T00:18:53.499Z,99.90
2022-10-12T00:19:55.320Z,99.90
2022-10-12T00:21:05.354Z,99.90
2022-10-12T00:22:07.331Z,99.90
2022-10-12T00:23:09.169Z,99.90
2022-10-12T00:24:10.939Z,99.90
2022-10-12T00:25:12.824Z,99.90
2022-10-12T00:26:20.951Z,99.90
2022-10-12T00:27:22.881Z,99.90
2022-10-12T00:28:24.684Z,99.90
2022-10-12T00:29:26.764Z,99.90
2022-10-12T00:30:28.477Z,99.90
2022-10-12T00:31:31.500Z,99.90
2022-10-12T00:32:33.364Z,99.90
2022-10-12T00:33:35.412Z,99.90
2022-10-12T00:34:37.455Z,99.90
2022-10-12T00:35:39.118Z,99.90
2022-10-12T00:36:40.945Z,99.90
2022-10-12T00:37:42.792Z,99.90
2022-10-12T00:38:45.156Z,99.90
2022-10-12T00:39:48.198Z,99.90
2022-10-12T00:40:50.211Z,99.90
2022-10-12T00:41:52.042Z,99.90
2022-10-12T00:42:54.803Z,99.90
2022-10-12T00:43:58.707Z,99.90
2022-10-12T00:45:00.795Z,99.90
2022-10-12T00:46:13.644Z,99.90
2022-10-12T00:47:33.709Z,99.90
2022-10-12T00:48:35.878Z,99.90
2022-10-12T00:49:37.668Z,99.90
2022-10-12T00:50:39.497Z,99.90
2022-10-12T00:51:43.965Z,99.90
2022-10-12T00:52:58.588Z,99.90
2022-10-12T00:54:04.666Z,99.90
2022-10-12T00:55:07.980Z,99.90
2022-10-12T00:56:18.156Z,99.90
2022-10-12T00:57:21.133Z,99.90
2022-10-12T00:58:23.000Z,99.90
2022-10-12T00:59:32.259Z,99.90
2022-10-12T01:00:35.822Z,99.90
2022-10-12T01:01:38.667Z,99.90
2022-10-12T01:02:42.526Z,99.90
2022-10-12T01:03:44.958Z,99.90
2022-10-12T01:04:47.096Z,99.90
2022-10-12T01:05:49.755Z,99.90
2022-10-12T01:06:53.014Z,99.90
2022-10-12T01:07:54.765Z,99.90
2022-10-12T01:08:57.626Z,99.90
2022-10-12T01:09:59.524Z,99.90
2022-10-12T01:11:01.589Z,99.90
2022-10-12T01:12:06.662Z,99.90
2022-10-12T01:13:08.479Z,99.90
2022-10-12T01:14:10.703Z,99.90
2022-10-12T01:15:13.588Z,99.90
2022-10-12T01:16:44.090Z,99.90
2022-10-12T01:18:06.280Z,99.90
2022-10-12T01:19:40.848Z,99.90
2022-10-12T01:20:49.311Z,99.90
2022-10-12T01:22:03.327Z,99.90
2022-10-12T01:23:13.778Z,99.90
2022-10-12T01:24:43.610Z,99.90
2022-10-12T01:26:21.251Z,99.90
2022-10-12T01:27:46.194Z,99.90
2022-10-12T01:28:50.650Z,99.90
2022-10-12T01:30:01.770Z,99.90
2022-10-12T01:32:56.997Z,99.90
2022-10-12T01:34:09.766Z,99.90
2022-10-12T01:35:28.993Z,99.90
2022-10-12T01:36:39.144Z,99.90
2022-10-12T01:38:01.685Z,99.90
2022-10-12T01:39:12.529Z,99.90
2022-10-12T01:40:34.881Z,99.90
2022-10-12T01:41:42.588Z,99.90
2022-10-12T01:42:45.126Z,99.90
2022-10-12T01:43:47.203Z,99.90
2022-10-12T01:44:49.012Z,99.90
2022-10-12T01:45:50.885Z,99.90
2022-10-12T01:46:56.371Z,99.90
2022-10-12T01:47:58.496Z,99.90
2022-10-12T01:49:02.180Z,99.90
2022-10-12T01:50:06.845Z,99.90
2022-10-12T01:51:12.022Z,99.90
2022-10-12T01:52:22.155Z,99.90
2022-10-12T01:53:26.560Z,99.90
2022-10-12T01:55:00.472Z,99.90
2022-10-12T01:56:25.898Z,99.90
2022-10-12T01:57:45.912Z,99.90
2022-10-12T01:58:53.452Z,99.90
2022-10-12T02:00:11.703Z,99.90
2022-10-12T02:01:26.081Z,99.90
2022-10-12T02:02:35.888Z,99.90
2022-10-12T02:04:29.573Z,99.90
2022-10-12T02:05:57.114Z,99.90
2022-10-12T02:07:08.686Z,99.90
2022-10-12T02:08:24.731Z,99.90
2022-10-12T02:09:33.351Z,99.90
2022-10-12T02:10:44.405Z,99.90
2022-10-12T02:11:48.328Z,99.90
2022-10-12T02:12:52.857Z,99.90
2022-10-12T02:13:56.447Z,99.90
2022-10-12T02:15:03.869Z,99.90
2022-10-12T02:16:10.180Z,99.90
2022-10-12T02:17:16.671Z,99.90
2022-10-12T02:18:21.447Z,99.90
2022-10-12T02:19:29.967Z,99.90
2022-10-12T02:20:33.824Z,99.90
2022-10-12T02:21:35.848Z,99.90
2022-10-12T02:22:38.756Z,99.90
2022-10-12T02:23:42.493Z,99.90
2022-10-12T02:24:48.619Z,99.90
2022-10-12T02:25:53.513Z,99.90
2022-10-12T02:26:56.804Z,99.90
2022-10-12T02:28:10.011Z,99.90
2022-10-12T02:29:16.407Z,99.90
2022-10-12T02:30:21.143Z,99.90
2022-10-12T02:31:45.838Z,99.90
2022-10-12T02:33:06.068Z,99.90
2022-10-12T02:34:18.905Z,99.90
2022-10-12T02:35:41.736Z,99.90
2022-10-12T02:37:04.808Z,99.90
2022-10-12T02:38:31.253Z,99.90
2022-10-12T02:39:50.692Z,99.90
2022-10-12T02:41:00.093Z,99.90
2022-10-12T02:42:10.340Z,99.90
2022-10-12T02:43:22.683Z,99.90
2022-10-12T02:44:35.141Z,99.90
2022-10-12T02:45:38.593Z,99.90
2022-10-12T02:46:41.347Z,99.90
2022-10-12T02:47:45.473Z,99.90
2022-10-12T02:48:48.768Z,99.90
2022-10-12T02:49:51.966Z,99.90
2022-10-12T02:50:57.397Z,99.90
2022-10-12T02:51:59.914Z,99.90
2022-10-12T02:53:04.542Z,99.90
2022-10-12T02:54:06.257Z,99.90
2022-10-12T02:55:08.114Z,99.90
2022-10-12T02:56:14.852Z,99.90
2022-10-12T02:57:16.550Z,99.90
2022-10-12T02:58:18.938Z,99.90
2022-10-12T02:59:20.618Z,99.90
2022-10-12T03:00:22.495Z,99.90
2022-10-12T03:01:24.409Z,99.90
2022-10-12T03:02:26.280Z,99.90
2022-10-12T03:03:28.584Z,99.90
2022-10-12T03:04:30.663Z,99.90
2022-10-12T03:05:32.307Z,99.90
2022-10-12T03:06:34.044Z,99.90
2022-10-12T03:07:35.973Z,99.90
2022-10-12T03:08:38.044Z,99.90
2022-10-12T03:09:39.758Z,99.90
2022-10-12T03:10:41.573Z,99.90
2022-10-12T03:11:44.703Z,99.90
2022-10-12T03:12:49.963Z,99.90
2022-10-12T03:13:53.398Z,99.90
2022-10-12T03:14:55.085Z,99.90
2022-10-12T03:16:06.712Z,99.90
2022-10-12T03:17:08.414Z,99.90
2022-10-12T03:18:10.140Z,99.90
2022-10-12T03:19:12.095Z,99.90
2022-10-12T03:20:14.115Z,99.90
2022-10-12T03:21:16.082Z,99.90
2022-10-12T03:22:17.800Z,99.90
2022-10-12T03:23:19.603Z,99.90
2022-10-12T03:24:21.491Z,99.90
2022-10-12T03:25:23.284Z,99.90
2022-10-12T03:26:25.138Z,99.90
2022-10-12T03:27:27.076Z,99.90
2022-10-12T03:28:28.998Z,99.90
2022-10-12T03:29:30.904Z,99.90
2022-10-12T03:30:32.598Z,99.90
2022-10-12T03:31:34.231Z,99.90
2022-10-12T03:32:35.915Z,99.90
2022-10-12T03:33:37.601Z,99.90
2022-10-12T03:34:39.259Z,99.90
2022-10-12T03:35:44.730Z,99.90
2022-10-12T03:36:46.406Z,99.90
2022-10-12T03:37:48.205Z,99.90
2022-10-12T03:38:49.858Z,99.90
2022-10-12T03:39:51.521Z,99.90
2022-10-12T03:40:53.646Z,99.90
2022-10-12T03:41:55.352Z,99.90
2022-10-12T03:42:57.159Z,99.90
2022-10-12T03:43:59.094Z,99.90
2022-10-12T03:45:00.904Z,99.90
2022-10-12T03:46:02.829Z,99.90
2022-10-12T03:47:04.564Z,99.90
2022-10-12T03:48:08.649Z,99.90
2022-10-12T03:49:10.452Z,99.90
2022-10-12T03:50:12.273Z,99.90
2022-10-12T03:51:13.971Z,99.90
2022-10-12T03:52:15.661Z,99.90
2022-10-12T03:53:18.472Z,99.90
2022-10-12T03:54:20.418Z,99.90
2022-10-12T03:55:23.727Z,99.90
2022-10-12T03:56:25.576Z,99.90
2022-10-12T03:57:27.469Z,99.90
2022-10-12T03:58:29.284Z,99.90
2022-10-12T03:59:31.108Z,99.90
2022-10-12T04:00:32.779Z,99.90
2022-10-12T04:01:34.668Z,99.90
2022-10-12T04:02:36.632Z,99.90
2022-10-12T04:03:38.306Z,99.90
2022-10-12T04:04:40.158Z,99.90
2022-10-12T04:05:41.848Z,99.90
2022-10-12T04:06:43.590Z,99.90
2022-10-12T04:07:45.619Z,99.90
2022-10-12T04:08:50.830Z,99.90
2022-10-12T04:09:52.861Z,99.90
2022-10-12T04:10:55.080Z,99.90
2022-10-12T04:11:56.928Z,99.90
2022-10-12T04:12:59.004Z,99.90
2022-10-12T04:14:00.820Z,99.90
2022-10-12T04:15:02.692Z,99.90
2022-10-12T04:16:06.313Z,99.90
2022-10-12T04:17:08.217Z,99.90
2022-10-12T04:18:10.012Z,99.90
2022-10-12T04:19:13.500Z,99.90
2022-10-12T04:20:15.236Z,99.90
2022-10-12T04:21:18.290Z,99.90
2022-10-12T04:22:20.368Z,99.90
2022-10-12T04:23:22.313Z,99.90
2022-10-12T04:24:24.332Z,99.90
2022-10-12T04:25:30.055Z,99.90
2022-10-12T04:26:32.306Z,99.90
2022-10-12T04:27:34.235Z,99.90
2022-10-12T04:28:36.348Z,99.90
2022-10-12T04:29:38.222Z,99.90
2022-10-12T04:30:41.188Z,99.90
2022-10-12T04:31:43.247Z,99.90
2022-10-12T04:32:45.541Z,99.90
2022-10-12T04:33:47.447Z,99.90
2022-10-12T04:34:49.256Z,99.90
2022-10-12T04:35:51.044Z,99.90
2022-10-12T04:36:52.844Z,99.90
2022-10-12T04:37:55.154Z,99.90
2022-10-12T04:39:00.840Z,99.90
2022-10-12T04:40:03.417Z,99.90
2022-10-12T04:41:05.895Z,99.90
2022-10-12T04:42:07.977Z,99.90
2022-10-12T04:43:09.904Z,99.90
2022-10-12T04:44:11.808Z,99.90
2022-10-12T04:45:13.822Z,99.90
2022-10-12T04:46:15.681Z,99.90
2022-10-12T04:47:17.469Z,99.90
2022-10-12T04:48:19.267Z,99.90
2022-10-12T04:49:20.945Z,99.90
2022-10-12T04:50:27.512Z,99.90
2022-10-12T04:51:32.856Z,99.90
2022-10-12T04:52:34.747Z,99.90
2022-10-12T04:53:36.515Z,99.90
2022-10-12T04:54:38.393Z,99.90
2022-10-12T04:55:40.240Z,99.90
2022-10-12T04:56:47.541Z,99.90
2022-10-12T04:57:50.312Z,99.90
2022-10-12T04:58:52.239Z,99.90
2022-10-12T04:59:54.231Z,99.90
2022-10-12T05:00:56.375Z,99.90
2022-10-12T05:01:58.658Z,99.90
2022-10-12T05:03:00.779Z,99.90
2022-10-12T05:04:02.724Z,99.90
2022-10-12T05:05:04.866Z,99.90
2022-10-12T05:06:07.307Z,99.90
2022-10-12T05:07:09.528Z,99.90
2022-10-12T05:08:13.415Z,99.90
2022-10-12T05:09:17.071Z,99.90
2022-10-12T05:10:19.754Z,99.90
2022-10-12T05:11:22.665Z,99.90
2022-10-12T05:12:24.821Z,99.90
2022-10-12T05:13:27.407Z,99.90
2022-10-12T05:14:33.593Z,99.90
2022-10-12T05:15:37.855Z,99.90
2022-10-12T05:16:39.729Z,99.90
2022-10-12T05:17:41.934Z,99.90
2022-10-12T05:18:44.218Z,99.90
2022-10-12T05:19:46.266Z,99.90
2022-10-12T05:20:48.156Z,99.90
2022-10-12T05:21:50.311Z,99.90
2022-10-12T05:22:52.525Z,99.90
2022-10-12T05:23:54.869Z,99.90
2022-10-12T05:24:56.817Z,99.90
2022-10-12T05:25:58.942Z,99.90
2022-10-12T05:27:01.098Z,99.90
2022-10-12T05:28:04.315Z,99.90
2022-10-12T05:29:06.257Z,99.90
2022-10-12T05:30:09.074Z,99.90
2022-10-12T05:31:11.072Z,99.90
2022-10-12T05:32:13.462Z,99.90
2022-10-12T05:33:15.798Z,99.90
2022-10-12T05:34:17.673Z,99.90
2022-10-12T05:35:19.585Z,99.90
2022-10-12T05:36:21.632Z,99.90
2022-10-12T05:37:24.497Z,99.90
2022-10-12T05:38:26.874Z,99.90
2022-10-12T05:39:28.785Z,99.90
2022-10-12T05:40:30.992Z,99.90
2022-10-12T05:41:32.847Z,99.90
2022-10-12T05:42:36.101Z,99.90
2022-10-12T05:43:38.790Z,99.90
2022-10-12T05:44:41.051Z,99.90
2022-10-12T05:45:43.325Z,99.90
2022-10-12T05:46:45.670Z,99.90
2022-10-12T05:47:48.090Z,99.90
2022-10-12T05:48:50.355Z,99.90
2022-10-12T05:49:52.219Z,99.90
2022-10-12T05:50:54.865Z,99.90
2022-10-12T05:51:56.630Z,99.90
2022-10-12T05:52:58.572Z,99.90
2022-10-12T05:54:00.862Z,99.90
2022-10-12T05:55:03.222Z,99.90
2022-10-12T05:56:05.552Z,99.90
2022-10-12T05:57:08.273Z,99.90
2022-10-12T05:58:10.598Z,99.90
2022-10-12T05:59:12.745Z,99.90
2022-10-12T06:00:16.237Z,99.90
2022-10-12T06:01:18.140Z,99.90
2022-10-12T06:02:21.375Z,99.90
2022-10-12T06:03:26.273Z,99.90
2022-10-12T06:04:28.640Z,99.90
2022-10-12T06:05:30.584Z,99.90
2022-10-12T06:06:32.620Z,99.90
2022-10-12T06:07:34.605Z,99.90
2022-10-12T06:08:36.816Z,99.90
2022-10-12T06:09:39.123Z,99.90
2022-10-12T06:10:51.233Z,99.90
2022-10-12T06:11:53.195Z,99.90
2022-10-12T06:12:55.606Z,99.90
2022-10-12T06:13:57.673Z,99.90
2022-10-12T06:14:59.949Z,99.90
2022-10-12T06:16:02.084Z,99.90
2022-10-12T06:17:04.230Z,99.90
2022-10-12T06:18:06.164Z,99.90
2022-10-12T06:19:11.075Z,99.90
2022-10-12T06:20:13.179Z,99.90
2022-10-12T06:22:37.559Z,99.90
2022-10-12T06:23:42.487Z,99.90
2022-10-12T06:24:44.306Z,99.90
2022-10-12T06:25:48.200Z,99.90
2022-10-12T06:26:50.536Z,99.90
2022-10-12T06:27:55.689Z,99.90
2022-10-12T06:28:58.271Z,99.90
2022-10-12T06:30:00.557Z,99.90
2022-10-12T06:31:02.596Z,99.90
2022-10-12T06:32:04.534Z,99.90
2022-10-12T06:33:07.516Z,99.90
2022-10-12T06:34:09.747Z,99.90
2022-10-12T06:35:13.558Z,99.90
2022-10-12T06:36:15.419Z,99.90
2022-10-12T06:37:44.314Z,99.90
2022-10-12T06:38:39.295Z,99.90
2022-10-12T06:39:41.248Z,99.90
2022-10-12T06:40:43.151Z,99.90
2022-10-12T06:41:44.973Z,99.90
2022-10-12T06:42:48.258Z,99.90
2022-10-12T06:43:49.996Z,99.90
2022-10-12T06:44:51.766Z,99.90
2022-10-12T06:45:53.687Z,99.90
2022-10-12T06:46:55.482Z,99.90
2022-10-12T06:47:58.469Z,99.90
2022-10-12T06:49:00.380Z,99.90
2022-10-12T06:50:02.305Z,99.90
2022-10-12T06:51:04.426Z,99.90
2022-10-12T06:52:06.416Z,99.90
2022-10-12T06:53:08.274Z,99.90
2022-10-12T06:54:10.220Z,99.90
2022-10-12T06:55:12.219Z,99.90
2022-10-12T06:56:14.221Z,99.90
2022-10-12T06:57:16.631Z,99.90
2022-10-12T06:58:18.842Z,99.90
2022-10-12T06:59:22.948Z,99.90
2022-10-12T07:00:25.515Z,99.90
2022-10-12T07:01:27.695Z,99.90
2022-10-12T07:02:31.420Z,99.90
2022-10-12T07:03:34.085Z,99.90
2022-10-12T07:04:35.992Z,99.90
2022-10-12T07:05:37.812Z,99.90
2022-10-12T07:06:39.773Z,99.90
2022-10-12T07:07:41.592Z,99.90
2022-10-12T07:08:43.464Z,99.90
2022-10-12T07:09:45.359Z,99.90
2022-10-12T07:10:47.205Z,99.90
2022-10-12T07:11:49.253Z,99.90
2022-10-12T07:12:50.941Z,99.90
2022-10-12T07:13:52.693Z,99.90
2022-10-12T07:14:58.513Z,99.90
2022-10-12T07:16:00.808Z,99.90
2022-10-12T07:17:02.693Z,99.90
2022-10-12T07:18:04.621Z,99.90
2022-10-12T07:19:06.652Z,99.90
2022-10-12T07:20:08.622Z,99.90
2022-10-12T07:21:10.569Z,99.90
2022-10-12T07:22:12.600Z,99.90
2022-10-12T07:23:14.427Z,99.90
2022-10-12T07:24:17.682Z,99.90
2022-10-12T07:25:19.871Z,99.90
2022-10-12T07:26:21.696Z,99.90
2022-10-12T07:27:23.580Z,99.90
2022-10-12T07:28:26.072Z,99.90
2022-10-12T07:29:29.431Z,99.90
2022-10-12T07:30:31.527Z,99.90
2022-10-12T07:31:33.220Z,99.90
2022-10-12T07:32:35.214Z,99.90
2022-10-12T07:33:40.807Z,99.90
2022-10-12T07:34:44.714Z,99.90
2022-10-12T07:36:13.338Z,99.90
2022-10-12T07:37:16.398Z,99.90
2022-10-12T07:38:18.235Z,99.90
2022-10-12T07:39:22.343Z,99.90
2022-10-12T07:40:26.437Z,99.90
2022-10-12T07:41:28.279Z,99.90
2022-10-12T07:42:30.174Z,99.90
2022-10-12T07:43:32.340Z,99.90
2022-10-12T07:44:34.411Z,99.90
2022-10-12T07:45:36.625Z,99.90
2022-10-12T07:46:38.723Z,99.90
2022-10-12T07:47:40.863Z,99.90
2022-10-12T07:48:47.486Z,99.90
2022-10-12T07:49:51.748Z,99.90
2022-10-12T07:50:53.486Z,99.90
2022-10-12T07:51:55.364Z,99.90
2022-10-12T07:52:58.228Z,99.90
2022-10-12T07:54:05.925Z,99.90
2022-10-12T07:55:08.410Z,99.90
2022-10-12T07:56:15.399Z,99.90
2022-10-12T07:57:17.502Z,99.90
2022-10-12T07:58:19.339Z,99.90
2022-10-12T07:59:21.402Z,99.90
2022-10-12T08:00:23.311Z,99.90
2022-10-12T08:01:28.330Z,99.90
2022-10-12T08:02:30.524Z,99.90
2022-10-12T08:03:32.518Z,99.90
2022-10-12T08:04:34.399Z,99.90
2022-10-12T08:05:38.266Z,99.90
2022-10-12T08:06:43.892Z,99.90
2022-10-12T08:07:46.052Z,99.90
2022-10-12T08:08:48.709Z,99.90
2022-10-12T08:09:50.627Z,99.90
2022-10-12T08:10:52.606Z,99.90
2022-10-12T08:11:56.301Z,99.90
2022-10-12T08:12:58.204Z,99.90
2022-10-12T08:14:00.096Z,99.90
2022-10-12T08:15:02.277Z,99.90
2022-10-12T08:16:06.442Z,99.90
2022-10-12T08:17:08.907Z,99.90
2022-10-12T08:18:14.060Z,99.90
2022-10-12T08:19:15.880Z,99.90
2022-10-12T08:20:18.059Z,99.90
2022-10-12T08:21:19.974Z,99.90
2022-10-12T08:22:21.808Z,99.90
2022-10-12T08:23:23.723Z,99.90
2022-10-12T08:24:25.821Z,99.90
2022-10-12T08:25:28.019Z,99.90
2022-10-12T08:26:30.507Z,99.90
2022-10-12T08:27:32.383Z,99.90
2022-10-12T08:28:35.669Z,99.90
2022-10-12T08:29:39.859Z,99.90
2022-10-12T08:30:41.849Z,99.90
2022-10-12T08:31:43.949Z,99.90
2022-10-12T08:32:46.191Z,99.90
2022-10-12T08:33:48.152Z,99.90
2022-10-12T08:34:49.976Z,99.90
2022-10-12T08:35:52.156Z,99.90
2022-10-12T08:36:53.942Z,99.90
2022-10-12T08:37:55.791Z,99.90
2022-10-12T08:38:58.876Z,99.90
2022-10-12T08:40:03.342Z,99.90
2022-10-12T08:41:40.419Z,99.90
2022-10-12T08:42:56.704Z,99.90
2022-10-12T08:44:35.017Z,99.90
2022-10-12T08:45:53.003Z,99.90
2022-10-12T08:47:00.698Z,99.90
2022-10-12T08:48:27.635Z,99.90
2022-10-12T08:49:32.006Z,99.90
2022-10-12T08:50:37.414Z,99.90
2022-10-12T08:51:50.205Z,99.90
2022-10-12T08:53:03.903Z,99.90
2022-10-12T08:54:13.842Z,99.90
2022-10-12T08:55:26.593Z,99.90
2022-10-12T08:56:28.924Z,99.90
2022-10-12T08:57:31.060Z,99.90
2022-10-12T08:58:37.190Z,99.90
2022-10-12T08:59:38.978Z,99.90
2022-10-12T09:00:41.800Z,99.90
2022-10-12T09:02:11.265Z,99.90
2022-10-12T09:03:27.630Z,99.90
2022-10-12T09:05:00.555Z,99.90
2022-10-12T09:06:12.385Z,99.60
2022-10-12T09:07:29.760Z,99.50
2022-10-12T09:08:55.311Z,99.00
2022-10-12T09:10:00.488Z,97.90
2022-10-12T09:11:18.726Z,97.60
2022-10-12T09:12:41.401Z,96.90
2022-10-12T09:14:06.632Z,96.60
2022-10-12T09:15:33.516Z,96.00
2022-10-12T09:16:42.097Z,95.30
2022-10-12T09:17:50.308Z,95.70
2022-10-12T09:19:18.017Z,95.60
2022-10-12T09:20:22.966Z,95.20
2022-10-12T09:21:28.618Z,95.50
2022-10-12T09:22:31.513Z,95.50
2022-10-12T09:23:40.297Z,95.40
2022-10-12T09:24:42.405Z,94.80
2022-10-12T09:25:44.232Z,94.50
2022-10-12T09:26:50.676Z,93.90
2022-10-12T09:27:53.094Z,93.40
2022-10-12T09:28:58.387Z,93.30
2022-10-12T09:30:04.386Z,93.30
2022-10-12T09:31:44.605Z,93.50
2022-10-12T09:33:11.944Z,93.50
2022-10-12T09:34:18.894Z,93.50
2022-10-12T09:35:21.485Z,93.20
2022-10-12T09:36:31.430Z,93.20
2022-10-12T09:37:35.763Z,93.00
2022-10-12T09:38:38.573Z,92.70
2022-10-12T09:39:40.862Z,92.80
2022-10-12T09:40:42.994Z,92.50
2022-10-12T09:41:47.236Z,92.10
2022-10-12T09:42:49.573Z,91.70
2022-10-12T09:44:01.175Z,91.10
2022-10-12T09:45:20.187Z,90.80
2022-10-12T09:46:40.182Z,90.80
2022-10-12T09:47:42.199Z,91.00
2022-10-12T09:48:58.880Z,91.20
2022-10-12T09:50:06.916Z,91.00
2022-10-12T09:51:09.582Z,91.00
2022-10-12T09:52:13.792Z,90.70
2022-10-12T09:53:37.657Z,90.40
2022-10-12T09:55:02.545Z,90.40
2022-10-12T09:56:14.661Z,90.50
2022-10-12T09:57:34.445Z,90.60
2022-10-12T09:58:43.835Z,90.60
2022-10-12T09:59:47.502Z,90.40
2022-10-12T10:01:19.518Z,90.10
2022-10-12T10:02:23.564Z,88.70
2022-10-12T10:03:30.618Z,88.90
2022-10-12T10:04:34.171Z,88.60
2022-10-12T10:05:38.327Z,87.60
2022-10-12T10:06:46.555Z,86.60
2022-10-12T10:07:48.486Z,84.90
2022-10-12T10:08:50.491Z,84.80
2022-10-12T10:10:13.540Z,84.00
2022-10-12T10:11:20.460Z,84.10
2022-10-12T10:12:24.225Z,83.30
2022-10-12T10:13:29.904Z,82.50
2022-10-12T10:14:32.791Z,81.70
2022-10-12T10:15:40.641Z,81.40
2022-10-12T10:16:51.341Z,80.50
2022-10-12T10:18:16.307Z,80.00
2022-10-12T10:19:21.268Z,79.10
2022-10-12T10:20:53.852Z,79.10
2022-10-12T10:21:56.124Z,78.80
2022-10-12T10:22:59.935Z,79.20
2022-10-12T10:24:07.274Z,79.30
2022-10-12T10:25:20.480Z,79.00
2022-10-12T10:26:24.282Z,79.20
2022-10-12T10:27:33.259Z,79.70
2022-10-12T10:28:39.336Z,81.40
2022-10-12T10:29:44.235Z,83.10
2022-10-12T10:30:57.654Z,84.60
2022-10-12T10:32:27.890Z,86.10
2022-10-12T10:33:35.381Z,87.00
2022-10-12T10:34:37.606Z,87.60
2022-10-12T10:35:39.522Z,88.10
2022-10-12T10:36:56.273Z,88.20
2022-10-12T10:37:59.558Z,87.50
2022-10-12T10:39:08.115Z,86.50
2022-10-12T10:40:36.507Z,85.60
2022-10-12T10:41:43.385Z,84.20
2022-10-12T10:42:52.424Z,83.20
2022-10-12T10:43:56.068Z,82.00
2022-10-12T10:44:59.921Z,81.40
2022-10-12T10:46:04.305Z,79.70
2022-10-12T10:47:11.391Z,79.10
2022-10-12T10:48:29.505Z,79.10
2022-10-12T10:49:39.862Z,79.20
2022-10-12T10:50:43.912Z,79.50
2022-10-12T10:51:55.066Z,80.30
2022-10-12T10:53:00.999Z,80.00
2022-10-12T10:54:16.269Z,80.30
2022-10-12T10:55:21.852Z,81.50
2022-10-12T10:56:30.541Z,81.60
2022-10-12T10:57:35.057Z,77.60
2022-10-12T10:58:49.110Z,75.30
2022-10-12T11:00:19.832Z,74.60
2022-10-12T11:01:40.633Z,75.60
2022-10-12T11:02:50.989Z,76.80
2022-10-12T11:04:04.611Z,77.90
2022-10-12T11:05:18.356Z,78.40
2022-10-12T11:06:31.081Z,78.70
2022-10-12T11:07:57.496Z,77.80
2022-10-12T11:09:05.836Z,76.80
2022-10-12T11:10:27.961Z,75.80
2022-10-12T11:11:34.167Z,68.60
2022-10-12T11:12:43.815Z,65.00
2022-10-12T11:14:00.582Z,62.40
2022-10-12T11:15:21.714Z,59.30
2022-10-12T11:16:38.359Z,59.40
2022-10-12T11:17:46.505Z,58.00
2022-10-12T11:18:54.370Z,55.70
2022-10-12T11:20:23.109Z,56.20
2022-10-12T11:21:38.453Z,57.20
2022-10-12T11:23:21.414Z,59.50
2022-10-12T11:24:51.417Z,61.40
2022-10-12T11:26:11.722Z,64.20
2022-10-12T11:27:37.865Z,66.50
2022-10-12T11:28:40.992Z,65.10
2022-10-12T11:29:42.894Z,62.50
2022-10-12T11:30:50.659Z,59.50
2022-10-12T11:32:15.073Z,59.30
2022-10-12T11:33:26.473Z,57.00
2022-10-12T11:34:32.113Z,53.40
2022-10-12T11:35:41.215Z,51.80
2022-10-12T11:37:07.514Z,53.30
2022-10-12T11:38:15.405Z,54.80
2022-10-12T11:39:28.369Z,55.20
2022-10-12T11:42:21.010Z,50.30
2022-10-12T11:43:27.154Z,51.20
2022-10-12T11:44:43.494Z,53.50
2022-10-12T11:45:49.593Z,55.40
2022-10-12T11:46:59.438Z,56.50
2022-10-12T11:48:26.878Z,57.50
2022-10-12T11:49:42.545Z,58.70
2022-10-12T11:50:48.451Z,60.20
2022-10-12T11:51:55.079Z,61.00
2022-10-12T11:53:00.371Z,58.00
2022-10-12T11:54:17.599Z,56.00
2022-10-12T11:55:32.872Z,56.50
2022-10-12T11:56:57.447Z,56.80
2022-10-12T11:58:10.693Z,51.60
2022-10-12T11:59:26.087Z,49.60
2022-10-12T12:00:41.790Z,48.40
2022-10-12T12:02:09.434Z,49.60
2022-10-12T12:03:27.107Z,52.30
2022-10-12T12:04:42.743Z,53.10
2022-10-12T12:05:45.365Z,53.60
2022-10-12T12:06:57.708Z,53.90
2022-10-12T12:07:59.664Z,51.20
2022-10-12T12:09:01.444Z,48.50
2022-10-12T12:10:31.328Z,46.00
2022-10-12T12:11:34.774Z,44.40
2022-10-12T12:12:36.515Z,44.40
2022-10-12T12:13:38.336Z,43.20
2022-10-12T12:14:59.689Z,42.40
2022-10-12T12:16:01.339Z,41.50
2022-10-12T12:17:30.804Z,41.10
2022-10-12T12:19:08.851Z,41.70
2022-10-12T12:20:44.292Z,40.70
2022-10-12T12:22:28.814Z,41.00
2022-10-12T12:23:30.664Z,40.50
2022-10-12T12:24:32.703Z,42.70
2022-10-12T12:25:34.675Z,43.60
2022-10-12T12:26:36.526Z,43.80
2022-10-12T12:27:43.112Z,44.00
2022-10-12T12:29:27.429Z,44.90
2022-10-12T12:30:37.112Z,45.20
2022-10-12T12:31:39.475Z,47.20
2022-10-12T12:33:06.625Z,48.20
2022-10-12T12:34:16.455Z,49.50
2022-10-12T12:35:52.828Z,50.10
2022-10-12T12:36:55.303Z,51.00
2022-10-12T12:38:17.417Z,51.90
2022-10-12T12:39:28.155Z,52.50
2022-10-12T12:40:30.561Z,53.10
2022-10-12T12:41:57.655Z,53.30
2022-10-12T12:43:29.519Z,53.50
2022-10-12T12:44:42.735Z,53.90
2022-10-12T12:45:54.456Z,53.80
2022-10-12T12:46:56.217Z,53.30
2022-10-12T12:47:58.213Z,52.80
2022-10-12T12:49:01.371Z,52.20
2022-10-12T12:50:29.113Z,51.60
2022-10-12T12:51:37.756Z,50.80
2022-10-12T12:52:40.922Z,51.40
2022-10-12T12:53:51.341Z,51.90
2022-10-12T12:55:11.127Z,52.50
2022-10-12T12:56:27.907Z,52.90
2022-10-12T12:57:39.005Z,53.40
2022-10-12T12:58:46.737Z,53.90
2022-10-12T13:00:15.385Z,54.30
2022-10-12T13:01:42.458Z,54.90
2022-10-12T13:03:08.728Z,55.30
2022-10-12T13:04:45.370Z,55.50
2022-10-12T13:06:06.050Z,55.70
2022-10-12T13:07:42.327Z,55.80
2022-10-12T13:08:57.087Z,56.00
2022-10-12T13:10:24.513Z,56.20
2022-10-12T13:11:52.620Z,56.40
2022-10-12T13:13:03.373Z,56.90
2022-10-12T13:14:19.979Z,57.00
2022-10-12T13:15:47.467Z,57.10
2022-10-12T13:17:31.696Z,57.10
2022-10-12T13:18:49.387Z,57.30
2022-10-12T13:19:55.373Z,57.40
2022-10-12T13:20:57.880Z,57.40
2022-10-12T13:22:05.660Z,57.40
2022-10-12T13:23:14.661Z,57.60
2022-10-12T13:24:33.429Z,57.60
2022-10-12T13:25:46.147Z,57.70
2022-10-12T13:26:51.671Z,57.70
2022-10-12T13:27:54.534Z,57.80
2022-10-12T13:28:58.315Z,57.70
2022-10-12T13:30:03.971Z,57.70
2022-10-12T13:31:18.915Z,57.80
2022-10-12T13:33:03.088Z,57.90
2022-10-12T13:34:22.452Z,58.00
2022-10-12T13:35:31.151Z,58.00
2022-10-12T13:36:36.295Z,58.20
2022-10-12T13:37:38.186Z,58.50
2022-10-12T13:38:40.342Z,58.60
2022-10-12T13:39:45.222Z,58.60
2022-10-12T13:40:54.038Z,58.50
2022-10-12T13:42:00.170Z,58.70
2022-10-12T13:43:46.123Z,58.90
2022-10-12T13:44:48.517Z,59.10
2022-10-12T13:45:50.244Z,59.10
2022-10-12T13:46:59.267Z,59.10
2022-10-12T13:48:05.066Z,59.30
2022-10-12T13:49:15.743Z,59.40
2022-10-12T13:50:21.490Z,59.30
2022-10-12T13:51:26.247Z,59.20
2022-10-12T13:52:32.649Z,59.20
2022-10-12T13:53:37.457Z,59.30
2022-10-12T13:54:49.547Z,59.40
2022-10-12T13:55:55.387Z,59.50
2022-10-12T13:57:04.113Z,59.60
2022-10-12T13:58:19.731Z,59.70
2022-10-12T13:59:24.360Z,59.80
2022-10-12T14:00:26.916Z,59.90
2022-10-12T14:01:28.758Z,59.90
2022-10-12T14:02:32.038Z,60.00
2022-10-12T14:03:42.624Z,60.10
2022-10-12T14:04:44.735Z,60.10
2022-10-12T14:05:46.716Z,60.00
2022-10-12T14:06:56.004Z,60.20
2022-10-12T14:08:03.279Z,60.40
2022-10-12T14:09:17.290Z,60.60
2022-10-12T14:10:23.432Z,60.70
2022-10-12T14:11:27.371Z,60.80
2022-10-12T14:12:30.777Z,60.80
2022-10-12T14:13:35.897Z,60.80
2022-10-12T14:14:39.930Z,60.80
2022-10-12T14:15:42.234Z,60.90
2022-10-12T14:16:44.083Z,61.00
2022-10-12T14:17:50.862Z,61.20
2022-10-12T14:18:52.801Z,61.40
2022-10-12T14:19:58.878Z,61.50
2022-10-12T14:21:28.235Z,61.80
2022-10-12T14:22:33.103Z,61.80
2022-10-12T14:23:35.078Z,62.00
2022-10-12T14:24:37.552Z,62.10
2022-10-12T14:25:55.713Z,62.30
2022-10-12T14:27:03.436Z,62.60
2022-10-12T14:28:07.238Z,62.80
2022-10-12T14:29:42.714Z,63.00
2022-10-12T14:30:52.523Z,63.20
2022-10-12T14:31:57.648Z,63.60